Terminal Aerodrome Forecast
Issued by NWS Miami, FL

Home | Current Version | Previous Version | Text Only | Print | Product List | Glossary On
Versions: 1 2 3 4 5 6 7 8 9 10 11 12 13 14 15 16 17 18 19 20 21 22 23 24
000
FTUS42 KMFL 262107 AAA
TAFAPF
TAF AMD
KAPF 262107Z 2621/2718 17008KT P6SM -SHRA VCTS SCT025CB BKN040
      BKN250
     FM270100 VRB03KT P6SM FEW035 SCT250
     FM271600 25008KT P6SM VCTS SCT025CB BKN060 BKN250=

USA.gov is the U.S. government's official web portal to all federal, state and local government web resources and services.